Impacts METAR Board
IDs:

KCLT - Charlotte/Douglas In, NC, US

Updated at: 0300 UTC 17 Jul 2018
Potential Impact None Slight Moderate High
Time 16/15Z 16/16Z 16/17Z 16/18Z 16/19Z 16/20Z 16/21Z 16/22Z 16/23Z 17/00Z 17/01Z 17/02Z 17/03Z
Temp81 82 84 85 87 89 84 82 78 78 78 77 77
Dewpt74 75 75 75 73 69 71 73 73 74 73 73 74
Altim30.08 30.09 30.08 30.06 30.03 30.01 30.02 30.01 30.01 30.01 30.02 30.02 30.02
VIS8 9 8 9 9 10 10 10 10 10 10 10 10
CIG160 80 170 170 180 200 200 200 200 200 180 220 --
CoverOVCOVCOVCOVCBKNBKNBKNBKNBKNBKNBKNBKNSCT
FltCatVFRVFRVFRVFRVFRVFRVFRVFRVFRVFRVFRVFRVFR
WX-------------RA------------
WDir20024025001701802101902702202000200
WSpd5 5 3 3 8 10 16 5 5 5 4 0 4
WGst-- -- -- -- -- -- 21 -- -- -- -- -- --
Raw hourly METARs
KCLT 161452Z 20005KT 8SM BKN160 OVC250 27/23 A3008 RMK AO2 SLP176 T02720233 51008
KCLT 161552Z 24005KT 9SM BKN080 BKN160 OVC250 28/24 A3009 RMK AO2 SLP178 T02780239
KCLT 161652Z 25003KT 8SM FEW030 SCT080 BKN170 OVC250 29/24 A3008 RMK AO2 SLP176 T02890239
KCLT 161752Z VRB03KT 9SM FEW024 SCT100 BKN170 OVC250 29/24 A3006 RMK AO2 SLP167 TCU DSNT N-NE AND NW T02940239 10294 20250 58008
KCLT 161852Z 17008KT 9SM FEW026 SCT100 BKN180 BKN250 31/23 A3003 RMK AO2 SLP159 CB DSNT NW T03060228
KCLT 161952Z 18010KT 10SM FEW028 SCT100 BKN200 BKN250 32/21 A3001 RMK AO2 SLP152 CB DSNT SW AND NW TCU DSNT NE-SE AND S-W T03170206
KCLT 162052Z 21016G21KT 10SM -RA SCT045CB SCT065 BKN200 BKN250 29/22 A3002 RMK AO2 RAB51 SLP154 CB SW MOV SE TCU DSNT NE-SE P0000 60000 T02890217 55013
KCLT 162152Z 19005KT 10SM FEW043 SCT110 BKN200 BKN250 28/23 A3001 RMK AO2 RAE00 SLP151 TCU DSNT NE-E P0000 T02780228
KCLT 162252Z 27005KT 10SM FEW043 SCT140 BKN200 BKN250 26/23 A3001 RMK AO2 SLP152 CB DSNT NE-E TCU DSNT SW T02560228
KCLT 162352Z 22005KT 10SM FEW040 SCT100 BKN200 BKN250 26/23 A3001 RMK AO2 SLP153 60000 T02560233 10322 20250 55002
KCLT 170052Z 20004KT 10SM SCT100 BKN180 BKN250 26/23 A3002 RMK AO2 SLP155 T02560228
KCLT 170152Z 00000KT 10SM SCT150 BKN220 25/23 A3002 RMK AO2 SLP156 T02500228
KCLT 170252Z 20004KT 10SM SCT031 SCT170 25/23 A3002 RMK AO2 SLP158 T02500233 53005



Page loaded:  03:33 UTC  |   08:33 PM Pacific  |   09:33 PM Mountain  |   10:33 PM Central  |   11:33 PM Eastern

 

ADVISORIES

FORECASTS

FORECASTS

OBSERVATIONS

USER TOOLS

ABOUT US